createdAt,value
2023-05-07T00:01:20.253Z,10.32
2023-05-07T00:04:08.607Z,9.45
2023-05-07T00:06:56.704Z,9.18
2023-05-07T00:09:44.283Z,12.07
2023-05-07T00:12:34.654Z,6.15
2023-05-07T00:15:22.294Z,7.35
2023-05-07T00:18:09.911Z,7.40
2023-05-07T00:20:57.664Z,4.57
2023-05-07T00:23:45.730Z,5.75
2023-05-07T00:26:33.221Z,4.80
2023-05-07T00:29:21.127Z,7.53
2023-05-07T00:32:09.289Z,4.25
2023-05-07T00:34:56.916Z,4.50
2023-05-07T00:37:44.576Z,5.47
2023-05-07T00:40:32.155Z,6.82
2023-05-07T00:43:19.637Z,4.15
2023-05-07T00:46:07.291Z,7.95
2023-05-07T00:48:55.070Z,4.60
2023-05-07T00:51:42.896Z,2.80
2023-05-07T00:54:30.492Z,6.88
2023-05-07T00:57:18.163Z,3.80
2023-05-07T01:00:06.387Z,2.55
2023-05-07T01:02:54.304Z,5.60
2023-05-07T01:05:43.470Z,3.03
2023-05-07T01:08:32.626Z,4.53
2023-05-07T01:11:23.141Z,5.43
2023-05-07T01:14:10.996Z,4.50
2023-05-07T01:16:59.803Z,3.30
2023-05-07T01:19:48.946Z,3.60
2023-05-07T01:22:38.367Z,2.35
2023-05-07T01:25:27.118Z,3.33
2023-05-07T01:28:18.205Z,2.05
2023-05-07T01:31:07.303Z,2.97
2023-05-07T01:33:58.108Z,3.20
2023-05-07T01:36:46.103Z,3.78
2023-05-07T01:39:34.143Z,2.35
2023-05-07T01:42:22.678Z,3.80
2023-05-07T01:45:10.879Z,6.80
2023-05-07T01:48:00.426Z,3.95
2023-05-07T01:50:48.545Z,4.63
2023-05-07T01:53:41.757Z,2.97
2023-05-07T01:56:29.631Z,5.50
2023-05-07T01:59:17.304Z,3.40
2023-05-07T02:02:04.896Z,5.10
2023-05-07T02:04:53.821Z,3.97
2023-05-07T02:07:42.855Z,2.10
2023-05-07T02:10:30.985Z,3.75
2023-05-07T02:13:18.600Z,5.85
2023-05-07T02:16:06.739Z,2.72
2023-05-07T02:18:54.481Z,3.22
2023-05-07T02:21:42.557Z,6.07
2023-05-07T02:24:31.010Z,4.57
2023-05-07T02:27:18.902Z,3.55
2023-05-07T02:30:07.215Z,3.83
2023-05-07T02:32:54.872Z,3.50
2023-05-07T02:35:43.634Z,4.85
2023-05-07T02:38:33.121Z,2.75
2023-05-07T02:41:21.551Z,5.32
2023-05-07T02:44:09.163Z,3.05
2023-05-07T02:46:56.980Z,4.93
2023-05-07T02:49:44.493Z,3.10
2023-05-07T02:52:31.945Z,3.70
2023-05-07T02:55:19.754Z,3.20
2023-05-07T02:58:07.184Z,6.68
2023-05-07T03:00:56.718Z,6.10
2023-05-07T03:03:52.591Z,3.38
2023-05-07T03:06:40.251Z,3.95
2023-05-07T03:09:27.769Z,3.33
2023-05-07T03:12:15.318Z,4.75
2023-05-07T03:15:03.046Z,3.97
2023-05-07T03:17:50.558Z,4.25
2023-05-07T03:20:38.295Z,2.17
2023-05-07T03:23:25.722Z,2.30
2023-05-07T03:26:13.158Z,2.63
2023-05-07T03:29:01.031Z,1.77
2023-05-07T03:31:48.848Z,1.65
2023-05-07T03:34:36.420Z,3.30
2023-05-07T03:37:24.229Z,1.95
2023-05-07T03:40:13.519Z,1.50
2023-05-07T03:43:14.558Z,2.60
2023-05-07T03:46:07.022Z,5.03
2023-05-07T03:48:54.662Z,1.98
2023-05-07T03:51:42.241Z,1.60
2023-05-07T03:54:31.450Z,3.40
2023-05-07T03:57:19.074Z,4.43
2023-05-07T04:00:07.750Z,3.08
2023-05-07T04:03:08.295Z,4.43
2023-05-07T04:05:56.114Z,2.88
2023-05-07T04:08:44.851Z,2.28
2023-05-07T04:11:32.451Z,3.20
2023-05-07T04:14:20.072Z,4.05
2023-05-07T04:17:08.139Z,4.60
2023-05-07T04:19:56.122Z,3.80
2023-05-07T04:22:43.769Z,38.40
2023-05-07T04:25:31.697Z,14.77
2023-05-07T04:28:27.742Z,29.77
2023-05-07T04:31:16.285Z,3.70
2023-05-07T04:34:05.123Z,4.60
2023-05-07T04:36:52.725Z,6.55
2023-05-07T04:39:40.488Z,2.42
2023-05-07T04:42:29.018Z,3.33
2023-05-07T04:45:17.201Z,3.13
2023-05-07T04:48:06.766Z,3.42
2023-05-07T04:50:55.352Z,1.92
2023-05-07T04:53:44.205Z,4.60
2023-05-07T04:56:32.245Z,5.68
2023-05-07T04:59:21.653Z,2.43
2023-05-07T05:02:11.500Z,2.85
2023-05-07T05:05:00.173Z,2.35
2023-05-07T05:07:47.776Z,2.15
2023-05-07T05:10:35.448Z,3.72
2023-05-07T05:13:23.267Z,2.38
2023-05-07T05:16:11.362Z,4.03
2023-05-07T05:19:00.718Z,2.95
2023-05-07T05:21:48.678Z,1.35
2023-05-07T05:24:36.308Z,2.47
2023-05-07T05:27:24.457Z,3.72
2023-05-07T05:30:13.278Z,3.20
2023-05-07T05:33:01.712Z,2.38
2023-05-07T05:35:50.778Z,2.15
2023-05-07T05:38:38.773Z,2.35
2023-05-07T05:41:26.583Z,3.75
2023-05-07T05:44:14.894Z,4.97
2023-05-07T05:47:04.281Z,3.63
2023-05-07T05:49:51.991Z,2.97
2023-05-07T05:52:39.745Z,2.22
2023-05-07T05:55:27.788Z,3.03
2023-05-07T05:58:16.302Z,3.45
2023-05-07T06:01:10.605Z,2.65
2023-05-07T06:03:58.864Z,2.70
2023-05-07T06:06:46.485Z,2.13
2023-05-07T06:09:34.203Z,3.33
2023-05-07T06:12:22.563Z,1.27
2023-05-07T06:15:10.941Z,6.22
2023-05-07T06:17:59.517Z,2.38
2023-05-07T06:20:47.452Z,2.83
2023-05-07T06:23:44.003Z,2.83
2023-05-07T06:26:32.194Z,2.15
2023-05-07T06:29:19.929Z,1.42
2023-05-07T06:32:11.769Z,2.25
2023-05-07T06:35:01.163Z,3.45
2023-05-07T06:37:48.814Z,2.40
2023-05-07T06:40:43.736Z,3.22
2023-05-07T06:43:31.267Z,2.25
2023-05-07T06:46:37.443Z,1.55
2023-05-07T06:49:27.056Z,2.67
2023-05-07T06:52:14.835Z,3.50
2023-05-07T06:55:03.175Z,2.55
2023-05-07T06:57:51.035Z,6.93
2023-05-07T07:00:40.057Z,13.07
2023-05-07T07:03:27.775Z,2.80
2023-05-07T07:06:16.726Z,2.13
2023-05-07T07:09:04.403Z,3.95
2023-05-07T07:11:52.351Z,2.10
2023-05-07T07:14:40.442Z,2.70
2023-05-07T07:17:28.334Z,3.65
2023-05-07T07:20:17.342Z,3.60
2023-05-07T07:23:06.530Z,2.97
2023-05-07T07:25:54.072Z,3.65
2023-05-07T07:28:46.092Z,3.90
2023-05-07T07:31:36.900Z,3.25
2023-05-07T07:34:24.481Z,3.00
2023-05-07T07:37:12.127Z,4.55
2023-05-07T07:39:59.824Z,4.90
2023-05-07T07:42:47.466Z,5.55
2023-05-07T07:45:35.884Z,4.50
2023-05-07T07:48:23.714Z,6.47
2023-05-07T07:51:11.625Z,3.05
2023-05-07T07:53:59.239Z,2.72
2023-05-07T07:56:46.839Z,2.95
2023-05-07T07:59:35.389Z,5.00
2023-05-07T08:02:23.134Z,3.40
2023-05-07T08:05:11.664Z,3.85
2023-05-07T08:07:59.621Z,4.43
2023-05-07T08:10:51.646Z,2.90
2023-05-07T08:13:46.922Z,3.72
2023-05-07T08:16:34.464Z,2.42
2023-05-07T08:19:23.186Z,4.55
2023-05-07T08:22:11.801Z,3.63
2023-05-07T08:25:01.116Z,3.10
2023-05-07T08:27:49.238Z,2.65
2023-05-07T08:30:37.314Z,1.98
2023-05-07T08:33:24.887Z,2.67
2023-05-07T08:36:12.724Z,2.38
2023-05-07T08:39:00.781Z,3.35
2023-05-07T08:41:49.373Z,2.20
2023-05-07T08:44:39.462Z,3.55
2023-05-07T08:50:16.715Z,2.85
2023-05-07T08:53:05.525Z,6.65
2023-05-07T08:55:54.024Z,4.65
2023-05-07T08:58:42.412Z,5.03
2023-05-07T09:01:30.153Z,9.27
2023-05-07T09:04:18.668Z,3.72
2023-05-07T09:07:07.010Z,3.58
2023-05-07T09:10:03.063Z,2.97
2023-05-07T09:12:51.814Z,2.88
2023-05-07T09:15:39.614Z,4.47
2023-05-07T09:18:27.340Z,4.93
2023-05-07T09:21:16.928Z,3.10
2023-05-07T09:24:06.085Z,2.75
2023-05-07T09:27:04.176Z,3.22
2023-05-07T09:29:51.935Z,4.43
2023-05-07T09:32:40.119Z,2.70
2023-05-07T09:35:33.924Z,3.10
2023-05-07T09:38:27.674Z,2.58
2023-05-07T09:41:19.830Z,2.67
2023-05-07T09:44:29.903Z,6.10
2023-05-07T09:47:20.553Z,6.35
2023-05-07T09:50:12.752Z,4.57
2023-05-07T09:53:01.482Z,4.32
2023-05-07T09:55:49.597Z,2.83
2023-05-07T09:58:38.259Z,4.72
2023-05-07T10:01:26.535Z,4.43
2023-05-07T10:04:15.303Z,4.43
2023-05-07T10:07:05.702Z,4.68
2023-05-07T10:09:54.597Z,3.80
2023-05-07T10:12:51.914Z,3.33
2023-05-07T10:15:48.915Z,2.17
2023-05-07T10:18:38.262Z,2.28
2023-05-07T10:21:32.865Z,6.03
2023-05-07T10:24:28.232Z,9.80
2023-05-07T10:27:17.320Z,3.42
2023-05-07T10:30:19.977Z,3.15
2023-05-07T10:33:10.319Z,3.13
2023-05-07T10:36:01.644Z,4.75
2023-05-07T10:38:51.344Z,3.00
2023-05-07T10:41:39.906Z,4.60
2023-05-07T10:44:29.950Z,4.18
2023-05-07T10:47:22.211Z,6.07
2023-05-07T10:50:13.130Z,3.38
2023-05-07T10:53:17.728Z,4.17
2023-05-07T10:56:26.155Z,7.57
2023-05-07T10:59:22.310Z,6.15
2023-05-07T11:02:15.199Z,6.72
2023-05-07T11:05:24.403Z,3.50
2023-05-07T11:08:19.851Z,4.72
2023-05-07T11:11:14.723Z,5.85
2023-05-07T11:14:10.690Z,5.43
2023-05-07T11:17:11.138Z,5.07
2023-05-07T11:19:59.594Z,4.57
2023-05-07T11:23:02.992Z,5.10
2023-05-07T11:26:00.869Z,7.45
2023-05-07T11:28:48.705Z,7.28
2023-05-07T11:31:36.754Z,4.97
2023-05-07T11:34:26.282Z,7.28
2023-05-07T11:37:18.495Z,3.28
2023-05-07T11:40:19.387Z,4.65
2023-05-07T11:43:12.796Z,4.80
2023-05-07T11:46:08.555Z,4.93
2023-05-07T11:48:57.206Z,3.88
2023-05-07T11:51:45.974Z,2.08
2023-05-07T11:54:38.025Z,3.38
2023-05-07T11:57:25.891Z,5.30
2023-05-07T12:00:16.832Z,7.88
2023-05-07T12:03:07.354Z,4.90
2023-05-07T12:05:55.100Z,5.78
2023-05-07T12:08:45.292Z,3.95
2023-05-07T12:11:35.026Z,5.47
2023-05-07T12:14:22.898Z,5.40
2023-05-07T12:17:14.740Z,4.05
2023-05-07T12:20:02.540Z,4.68
2023-05-07T12:22:52.437Z,5.68
2023-05-07T12:25:40.942Z,4.10
2023-05-07T12:28:28.605Z,5.90
2023-05-07T12:31:17.080Z,8.93
2023-05-07T12:34:04.794Z,5.88
2023-05-07T12:36:52.348Z,6.18
2023-05-07T12:39:45.882Z,6.30
2023-05-07T12:42:37.701Z,4.65
2023-05-07T12:45:27.423Z,7.85
2023-05-07T12:48:14.989Z,6.63
2023-05-07T12:51:03.313Z,6.03
2023-05-07T12:53:50.998Z,5.53
2023-05-07T12:56:38.495Z,6.32
2023-05-07T12:59:40.957Z,7.25
2023-05-07T13:02:35.760Z,6.30
2023-05-07T13:05:23.446Z,8.68
2023-05-07T13:08:10.992Z,6.03
2023-05-07T13:11:00.165Z,5.38
2023-05-07T13:13:47.650Z,5.88
2023-05-07T13:16:35.155Z,6.07
2023-05-07T13:19:23.059Z,6.40
2023-05-07T13:22:11.037Z,11.25
2023-05-07T13:24:58.602Z,10.43
2023-05-07T13:27:46.752Z,6.97
2023-05-07T13:30:37.294Z,8.63
2023-05-07T13:33:25.189Z,7.47
2023-05-07T13:36:12.651Z,8.63
2023-05-07T13:39:01.473Z,4.63
2023-05-07T13:41:49.020Z,4.97
2023-05-07T13:44:36.692Z,7.43
2023-05-07T13:47:24.833Z,16.38
2023-05-07T13:50:14.585Z,7.35
2023-05-07T13:53:02.193Z,18.42
2023-05-07T13:55:49.940Z,7.13
2023-05-07T13:58:42.225Z,8.23
2023-05-07T14:01:35.865Z,5.38
2023-05-07T14:04:23.503Z,6.53
2023-05-07T14:07:11.324Z,8.05
2023-05-07T14:09:58.874Z,7.63
2023-05-07T14:12:46.597Z,6.88
2023-05-07T14:15:35.587Z,9.35
2023-05-07T14:18:23.257Z,7.70
2023-05-07T14:21:11.169Z,8.25
2023-05-07T14:23:58.934Z,7.20
2023-05-07T14:26:46.624Z,11.02
2023-05-07T14:29:34.323Z,8.70
2023-05-07T14:32:22.559Z,8.30
2023-05-07T14:35:10.140Z,8.52
2023-05-07T14:37:57.862Z,8.55
2023-05-07T14:40:46.419Z,8.77
2023-05-07T14:43:34.126Z,6.22
2023-05-07T14:46:21.798Z,7.60
2023-05-07T14:49:17.650Z,8.45
2023-05-07T14:52:07.208Z,8.07
2023-05-07T14:54:54.853Z,7.72
2023-05-07T14:57:42.438Z,8.10
2023-05-07T15:00:30.052Z,6.38
2023-05-07T15:03:18.279Z,5.88
2023-05-07T15:06:06.552Z,6.72
2023-05-07T15:08:54.041Z,3.15
2023-05-07T15:11:41.718Z,6.38
2023-05-07T15:14:29.298Z,6.57
2023-05-07T15:17:16.950Z,9.00
2023-05-07T15:20:05.812Z,9.95
2023-05-07T15:22:54.064Z,9.07
2023-05-07T15:25:41.876Z,8.00
2023-05-07T15:28:29.795Z,8.98
2023-05-07T15:31:19.472Z,10.18
2023-05-07T15:34:07.366Z,9.05
2023-05-07T15:36:57.740Z,7.85
2023-05-07T15:39:45.810Z,6.65
2023-05-07T15:42:34.270Z,6.00
2023-05-07T15:45:22.164Z,6.40
2023-05-07T15:48:10.855Z,6.78
2023-05-07T15:50:59.861Z,7.65
2023-05-07T15:53:47.646Z,8.10
2023-05-07T15:56:35.287Z,8.80
2023-05-07T15:59:23.793Z,8.32
2023-05-07T16:02:11.429Z,4.57
2023-05-07T16:04:59.063Z,7.57
2023-05-07T16:07:46.603Z,4.80
2023-05-07T16:10:34.145Z,8.95
2023-05-07T16:13:21.814Z,5.05
2023-05-07T16:16:09.587Z,4.22
2023-05-07T16:18:57.580Z,6.35
2023-05-07T16:21:45.192Z,5.45
2023-05-07T16:24:33.367Z,4.78
2023-05-07T16:27:21.009Z,4.68
2023-05-07T16:30:09.099Z,6.70
2023-05-07T16:32:56.793Z,6.43
2023-05-07T16:35:47.643Z,4.78
2023-05-07T16:38:35.197Z,5.35
2023-05-07T16:41:23.037Z,3.83
2023-05-07T16:44:11.243Z,3.53
2023-05-07T16:46:59.194Z,8.13
2023-05-07T16:49:47.073Z,3.80
2023-05-07T16:52:34.954Z,4.43
2023-05-07T16:55:22.753Z,3.53
2023-05-07T16:58:11.760Z,3.50
2023-05-07T17:00:59.632Z,6.07
2023-05-07T17:03:47.384Z,2.72
2023-05-07T17:06:34.906Z,4.25
2023-05-07T17:09:22.934Z,4.32
2023-05-07T17:12:10.439Z,4.25
2023-05-07T17:14:57.874Z,4.45
2023-05-07T17:17:45.543Z,3.92
2023-05-07T17:20:33.208Z,4.47
2023-05-07T17:23:20.713Z,4.90
2023-05-07T17:26:13.330Z,4.32
2023-05-07T17:29:00.864Z,3.67
2023-05-07T17:31:48.644Z,4.53
2023-05-07T17:34:36.412Z,7.35
2023-05-07T17:37:24.294Z,6.22
2023-05-07T17:40:12.401Z,5.60
2023-05-07T17:43:00.343Z,5.70
2023-05-07T17:45:48.398Z,4.43
2023-05-07T17:48:36.370Z,3.45
2023-05-07T17:51:26.011Z,4.10
2023-05-07T17:54:13.644Z,4.57
2023-05-07T17:57:01.923Z,5.95
2023-05-07T17:59:52.035Z,2.47
2023-05-07T18:02:41.184Z,3.83
2023-05-07T18:05:29.500Z,4.10
2023-05-07T18:08:17.080Z,5.55
2023-05-07T18:11:05.848Z,6.70
2023-05-07T18:13:53.469Z,6.45
2023-05-07T18:16:41.129Z,7.35
2023-05-07T18:19:28.776Z,6.55
2023-05-07T18:22:16.463Z,8.57
2023-05-07T18:25:15.025Z,8.65
2023-05-07T18:28:02.737Z,10.02
2023-05-07T18:30:50.215Z,10.82
2023-05-07T18:33:38.003Z,10.43
2023-05-07T18:36:26.909Z,26.23
2023-05-07T18:39:14.353Z,16.70
2023-05-07T18:42:01.903Z,20.50
2023-05-07T18:44:50.286Z,18.45
2023-05-07T18:47:40.830Z,23.67
2023-05-07T18:50:28.374Z,19.77
2023-05-07T18:53:16.002Z,22.35
2023-05-07T18:56:03.600Z,21.30
2023-05-07T18:58:51.060Z,24.77
2023-05-07T19:01:38.832Z,21.60
2023-05-07T19:04:26.560Z,21.77
2023-05-07T19:07:14.317Z,25.42
2023-05-07T19:10:19.779Z,22.45
2023-05-07T19:13:07.536Z,22.40
2023-05-07T19:15:55.393Z,23.60
2023-05-07T19:18:43.494Z,24.10
2023-05-07T19:21:31.819Z,26.23
2023-05-07T19:24:19.361Z,23.77
2023-05-07T19:27:07.391Z,27.42
2023-05-07T19:29:54.950Z,26.02
2023-05-07T19:32:42.632Z,26.85
2023-05-07T19:35:31.391Z,24.70
2023-05-07T19:38:19.144Z,26.42
2023-05-07T19:41:06.836Z,20.42
2023-05-07T19:43:54.357Z,22.25
2023-05-07T19:46:45.023Z,22.95
2023-05-07T19:49:32.795Z,21.05
2023-05-07T19:52:20.405Z,24.73
2023-05-07T19:55:11.202Z,19.95
2023-05-07T19:57:59.126Z,20.73
2023-05-07T20:00:46.687Z,22.40
2023-05-07T20:03:34.583Z,20.48
2023-05-07T20:06:23.438Z,19.73
2023-05-07T20:09:12.775Z,17.52
2023-05-07T20:12:00.701Z,18.42
2023-05-07T20:14:48.144Z,18.77
2023-05-07T20:17:35.742Z,25.27
2023-05-07T20:20:24.619Z,23.77
2023-05-07T20:23:13.318Z,19.02
2023-05-07T20:26:00.947Z,20.63
2023-05-07T20:28:48.618Z,21.83
2023-05-07T20:31:36.295Z,20.60
2023-05-07T20:34:23.928Z,22.30
2023-05-07T20:37:14.408Z,21.90
2023-05-07T20:40:03.105Z,21.42
2023-05-07T20:42:51.236Z,20.55
2023-05-07T20:45:38.750Z,19.80
2023-05-07T20:48:30.507Z,19.75
2023-05-07T20:51:18.120Z,20.35
2023-05-07T20:54:08.536Z,19.38
2023-05-07T20:56:57.372Z,19.35
2023-05-07T20:59:45.061Z,19.35
2023-05-07T21:02:32.568Z,20.23
2023-05-07T21:05:20.205Z,20.10
2023-05-07T21:08:07.707Z,16.95
2023-05-07T21:10:55.397Z,16.33
2023-05-07T21:13:42.961Z,17.33
2023-05-07T21:16:30.525Z,15.93
2023-05-07T21:19:18.043Z,15.32
2023-05-07T21:22:06.793Z,16.17
2023-05-07T21:24:54.245Z,16.27
2023-05-07T21:27:42.001Z,15.88
2023-05-07T21:30:29.624Z,14.73
2023-05-07T21:33:17.178Z,16.88
2023-05-07T21:36:06.003Z,13.00
2023-05-07T21:38:53.841Z,14.45
2023-05-07T21:41:41.344Z,14.80
2023-05-07T21:44:29.954Z,16.98
2023-05-07T21:47:17.456Z,14.20
2023-05-07T21:50:05.477Z,15.15
2023-05-07T21:52:53.158Z,14.25
2023-05-07T21:55:40.676Z,13.90
2023-05-07T21:58:29.432Z,16.25
2023-05-07T22:01:16.973Z,13.05
2023-05-07T22:04:04.874Z,11.52
2023-05-07T22:06:52.785Z,12.85
2023-05-07T22:09:40.269Z,12.32
2023-05-07T22:12:27.838Z,14.18
2023-05-07T22:15:15.354Z,12.82
2023-05-07T22:18:02.909Z,12.18
2023-05-07T22:20:51.776Z,15.32
2023-05-07T22:23:39.296Z,12.45
2023-05-07T22:26:27.354Z,12.10
2023-05-07T22:29:15.412Z,11.75
2023-05-07T22:32:03.596Z,11.52
2023-05-07T22:34:51.300Z,15.02
2023-05-07T22:37:38.845Z,13.23
2023-05-07T22:40:26.346Z,14.68
2023-05-07T22:43:13.872Z,12.93
2023-05-07T22:46:01.978Z,15.27
2023-05-07T22:48:49.651Z,13.10
2023-05-07T22:51:37.238Z,12.88
2023-05-07T22:54:25.663Z,13.80
2023-05-07T22:57:13.329Z,14.18
2023-05-07T23:00:01.012Z,13.38
2023-05-07T23:02:49.001Z,12.90
2023-05-07T23:05:37.288Z,13.68
2023-05-07T23:08:24.952Z,14.18
2023-05-07T23:11:12.760Z,15.10
2023-05-07T23:14:00.852Z,13.68
2023-05-07T23:16:48.752Z,13.30
2023-05-07T23:19:37.066Z,13.00
2023-05-07T23:22:24.702Z,14.27
2023-05-07T23:25:12.228Z,12.77
2023-05-07T23:27:59.736Z,12.63
2023-05-07T23:30:47.394Z,13.07
2023-05-07T23:33:35.200Z,13.00
2023-05-07T23:36:22.768Z,15.23
2023-05-07T23:39:10.514Z,15.95
2023-05-07T23:41:57.979Z,12.88
2023-05-07T23:44:45.416Z,13.23
2023-05-07T23:47:33.007Z,11.75
2023-05-07T23:50:22.955Z,11.63
2023-05-07T23:53:10.832Z,12.63
2023-05-07T23:55:58.446Z,12.82
2023-05-07T23:58:46.150Z,12.00
